Terminal Aerodrome Forecast
Issued by NWS

Home | Current Version | Previous Version | Text Only | Print | Product List | Glossary On
Versions: 1 2 3 4 5 6 7 8 9 10 11 12 13 14 15 16 17 18 19 20 21 22 23
000
FTPA31 PHFO 290117 AAA
TAFMDY
TAF AMD
PMDY 290117Z 2901/2924 05008KT P6SM FEW012 BKN022
      TEMPO 2901/2903 FEW012 SCT025
     FM291000 09005KT P6SM SCT005 BKN018
     FM291800 VRB03KT 5SM BR BKN005 BKN020
     FM292200 18005KT P6SM FEW010 SCT035=

USA.gov is the U.S. government's official web portal to all federal, state and local government web resources and services.